sensor_id;sensor_type;location;lat;lon;timestamp;P1;durP1;ratioP1;P2;durP2;ratioP2
42518;SDS011;28147;47.520;18.920;2023-02-15T00:58:46;12.57;;;6.45;;
42518;SDS011;28147;47.520;18.920;2023-02-15T01:05:04;9.77;;;4.75;;
42518;SDS011;28147;47.520;18.920;2023-02-15T01:47:14;10.43;;;5.03;;
42518;SDS011;28147;47.520;18.920;2023-02-15T01:57:00;9.35;;;4.78;;
42518;SDS011;28147;47.520;18.920;2023-02-15T01:59:53;7.80;;;4.60;;
42518;SDS011;28147;47.520;18.920;2023-02-15T02:03:09;9.98;;;5.70;;
42518;SDS011;28147;47.520;18.920;2023-02-15T02:05:35;10.23;;;5.67;;
42518;SDS011;28147;47.520;18.920;2023-02-15T02:14:04;7.43;;;4.22;;
42518;SDS011;28147;47.520;18.920;2023-02-15T03:15:18;9.02;;;4.05;;
42518;SDS011;28147;47.520;18.920;2023-02-15T03:27:32;8.32;;;4.03;;
42518;SDS011;28147;47.520;18.920;2023-02-15T03:30:01;11.10;;;4.60;;
42518;SDS011;28147;47.520;18.920;2023-02-15T03:38:08;7.38;;;4.35;;
42518;SDS011;28147;47.520;18.920;2023-02-15T03:41:29;10.43;;;4.50;;
42518;SDS011;28147;47.520;18.920;2023-02-15T04:11:18;10.55;;;4.68;;
42518;SDS011;28147;47.520;18.920;2023-02-15T04:13:44;7.57;;;4.10;;
42518;SDS011;28147;47.520;18.920;2023-02-15T04:16:09;8.82;;;4.15;;
42518;SDS011;28147;47.520;18.920;2023-02-15T04:18:38;7.82;;;4.28;;
42518;SDS011;28147;47.520;18.920;2023-02-15T04:25:28;11.25;;;4.35;;
42518;SDS011;28147;47.520;18.920;2023-02-15T04:33:08;8.93;;;4.30;;
42518;SDS011;28147;47.520;18.920;2023-02-15T04:35:33;11.93;;;5.03;;
42518;SDS011;28147;47.520;18.920;2023-02-15T04:37:59;10.68;;;4.60;;
42518;SDS011;28147;47.520;18.920;2023-02-15T04:43:09;8.40;;;4.30;;
42518;SDS011;28147;47.520;18.920;2023-02-15T04:45:34;9.55;;;4.68;;
42518;SDS011;28147;47.520;18.920;2023-02-15T04:55:22;10.27;;;4.45;;
42518;SDS011;28147;47.520;18.920;2023-02-15T06:07:08;10.80;;;5.03;;
42518;SDS011;28147;47.520;18.920;2023-02-15T06:22:59;12.07;;;7.40;;
42518;SDS011;28147;47.520;18.920;2023-02-15T06:25:24;11.32;;;7.10;;
42518;SDS011;28147;47.520;18.920;2023-02-15T06:28:08;16.30;;;7.25;;
42518;SDS011;28147;47.520;18.920;2023-02-15T06:32:12;10.50;;;6.50;;
42518;SDS011;28147;47.520;18.920;2023-02-15T06:38:25;12.35;;;6.25;;
42518;SDS011;28147;47.520;18.920;2023-02-15T06:40:51;15.85;;;6.25;;
42518;SDS011;28147;47.520;18.920;2023-02-15T06:43:16;11.82;;;6.30;;
42518;SDS011;28147;47.520;18.920;2023-02-15T06:45:41;19.00;;;6.57;;
42518;SDS011;28147;47.520;18.920;2023-02-15T06:48:07;23.20;;;6.38;;
42518;SDS011;28147;47.520;18.920;2023-02-15T06:52:55;14.05;;;5.80;;
42518;SDS011;28147;47.520;18.920;2023-02-15T06:56:38;24.85;;;7.10;;
42518;SDS011;28147;47.520;18.920;2023-02-15T06:59:04;15.05;;;6.25;;
42518;SDS011;28147;47.520;18.920;2023-02-15T07:13:18;18.80;;;9.75;;
42518;SDS011;28147;47.520;18.920;2023-02-15T07:19:37;15.38;;;8.45;;
42518;SDS011;28147;47.520;18.920;2023-02-15T07:25:13;17.05;;;9.27;;
42518;SDS011;28147;47.520;18.920;2023-02-15T07:32:17;16.02;;;8.50;;
42518;SDS011;28147;47.520;18.920;2023-02-15T07:34:42;12.70;;;7.43;;
42518;SDS011;28147;47.520;18.920;2023-02-15T07:39:30;15.77;;;7.78;;
42518;SDS011;28147;47.520;18.920;2023-02-15T07:43:24;20.13;;;8.73;;
42518;SDS011;28147;47.520;18.920;2023-02-15T07:45:50;19.80;;;9.98;;
42518;SDS011;28147;47.520;18.920;2023-02-15T08:00:58;16.27;;;8.48;;
42518;SDS011;28147;47.520;18.920;2023-02-15T08:03:26;17.63;;;8.40;;
42518;SDS011;28147;47.520;18.920;2023-02-15T08:08:30;19.00;;;9.50;;
42518;SDS011;28147;47.520;18.920;2023-02-15T08:11:03;19.80;;;9.80;;
42518;SDS011;28147;47.520;18.920;2023-02-15T08:13:50;18.50;;;9.57;;
42518;SDS011;28147;47.520;18.920;2023-02-15T08:18:55;20.50;;;9.75;;
42518;SDS011;28147;47.520;18.920;2023-02-15T08:21:22;23.38;;;11.10;;
42518;SDS011;28147;47.520;18.920;2023-02-15T08:23:50;31.75;;;14.32;;
42518;SDS011;28147;47.520;18.920;2023-02-15T08:26:16;24.05;;;12.70;;
42518;SDS011;28147;47.520;18.920;2023-02-15T08:28:42;27.00;;;12.57;;
42518;SDS011;28147;47.520;18.920;2023-02-15T08:31:11;24.60;;;12.07;;
42518;SDS011;28147;47.520;18.920;2023-02-15T08:33:38;20.65;;;10.15;;
42518;SDS011;28147;47.520;18.920;2023-02-15T08:36:05;24.60;;;10.10;;
42518;SDS011;28147;47.520;18.920;2023-02-15T08:38:32;23.83;;;11.52;;
42518;SDS011;28147;47.520;18.920;2023-02-15T08:41:08;21.88;;;11.48;;
42518;SDS011;28147;47.520;18.920;2023-02-15T08:43:58;20.58;;;10.93;;
42518;SDS011;28147;47.520;18.920;2023-02-15T08:46:25;26.58;;;12.10;;
42518;SDS011;28147;47.520;18.920;2023-02-15T08:48:52;24.25;;;12.50;;
42518;SDS011;28147;47.520;18.920;2023-02-15T08:51:18;24.35;;;12.23;;
42518;SDS011;28147;47.520;18.920;2023-02-15T08:53:47;21.83;;;10.65;;
42518;SDS011;28147;47.520;18.920;2023-02-15T08:56:17;18.83;;;10.52;;
42518;SDS011;28147;47.520;18.920;2023-02-15T08:58:44;17.63;;;10.38;;
42518;SDS011;28147;47.520;18.920;2023-02-15T09:01:15;17.65;;;10.02;;
42518;SDS011;28147;47.520;18.920;2023-02-15T09:03:43;21.23;;;11.18;;
42518;SDS011;28147;47.520;18.920;2023-02-15T09:06:10;18.88;;;10.43;;
42518;SDS011;28147;47.520;18.920;2023-02-15T09:08:36;20.33;;;10.73;;
42518;SDS011;28147;47.520;18.920;2023-02-15T09:11:09;23.70;;;11.25;;
42518;SDS011;28147;47.520;18.920;2023-02-15T09:13:37;21.85;;;11.80;;
42518;SDS011;28147;47.520;18.920;2023-02-15T09:16:04;26.42;;;12.35;;
42518;SDS011;28147;47.520;18.920;2023-02-15T09:18:32;24.20;;;11.52;;
42518;SDS011;28147;47.520;18.920;2023-02-15T09:21:07;22.45;;;10.68;;
42518;SDS011;28147;47.520;18.920;2023-02-15T09:23:34;24.98;;;12.45;;
42518;SDS011;28147;47.520;18.920;2023-02-15T09:26:03;26.58;;;12.82;;
42518;SDS011;28147;47.520;18.920;2023-02-15T09:28:30;29.98;;;13.10;;
42518;SDS011;28147;47.520;18.920;2023-02-15T09:31:03;27.52;;;13.95;;
42518;SDS011;28147;47.520;18.920;2023-02-15T09:33:40;24.33;;;12.65;;
42518;SDS011;28147;47.520;18.920;2023-02-15T09:36:29;22.92;;;13.00;;
42518;SDS011;28147;47.520;18.920;2023-02-15T09:39:01;20.77;;;11.25;;
42518;SDS011;28147;47.520;18.920;2023-02-15T09:55:56;23.17;;;12.15;;
42518;SDS011;28147;47.520;18.920;2023-02-15T09:58:42;24.17;;;11.98;;
42518;SDS011;28147;47.520;18.920;2023-02-15T10:03:50;19.35;;;10.02;;
42518;SDS011;28147;47.520;18.920;2023-02-15T10:12:14;21.45;;;10.35;;
42518;SDS011;28147;47.520;18.920;2023-02-15T10:15:12;23.63;;;11.07;;
42518;SDS011;28147;47.520;18.920;2023-02-15T10:23:24;16.30;;;10.18;;
42518;SDS011;28147;47.520;18.920;2023-02-15T10:26:54;18.98;;;10.43;;
42518;SDS011;28147;47.520;18.920;2023-02-15T10:29:27;19.55;;;10.77;;
42518;SDS011;28147;47.520;18.920;2023-02-15T10:32:10;19.67;;;10.80;;
42518;SDS011;28147;47.520;18.920;2023-02-15T10:34:51;20.23;;;10.48;;
42518;SDS011;28147;47.520;18.920;2023-02-15T10:45:47;23.95;;;11.95;;
42518;SDS011;28147;47.520;18.920;2023-02-15T10:52:01;20.90;;;11.00;;
42518;SDS011;28147;47.520;18.920;2023-02-15T10:54:38;20.50;;;10.90;;
42518;SDS011;28147;47.520;18.920;2023-02-15T11:08:23;23.33;;;12.40;;
42518;SDS011;28147;47.520;18.920;2023-02-15T11:10:54;22.02;;;11.23;;
42518;SDS011;28147;47.520;18.920;2023-02-15T11:13:27;27.95;;;14.98;;
42518;SDS011;28147;47.520;18.920;2023-02-15T11:16:03;28.92;;;14.15;;
42518;SDS011;28147;47.520;18.920;2023-02-15T11:18:34;27.90;;;14.00;;
42518;SDS011;28147;47.520;18.920;2023-02-15T11:21:06;30.58;;;16.00;;
42518;SDS011;28147;47.520;18.920;2023-02-15T11:23:45;27.17;;;14.23;;
42518;SDS011;28147;47.520;18.920;2023-02-15T11:29:10;30.58;;;16.13;;
42518;SDS011;28147;47.520;18.920;2023-02-15T11:34:58;28.05;;;14.38;;
42518;SDS011;28147;47.520;18.920;2023-02-15T11:42:49;28.58;;;15.15;;
42518;SDS011;28147;47.520;18.920;2023-02-15T11:45:21;30.23;;;16.27;;
42518;SDS011;28147;47.520;18.920;2023-02-15T11:47:52;29.75;;;16.30;;
42518;SDS011;28147;47.520;18.920;2023-02-15T11:50:23;28.05;;;16.33;;
42518;SDS011;28147;47.520;18.920;2023-02-15T11:52:52;34.03;;;16.08;;
42518;SDS011;28147;47.520;18.920;2023-02-15T11:55:21;30.90;;;17.02;;
42518;SDS011;28147;47.520;18.920;2023-02-15T11:57:51;27.75;;;15.55;;
42518;SDS011;28147;47.520;18.920;2023-02-15T12:00:30;27.23;;;15.20;;
42518;SDS011;28147;47.520;18.920;2023-02-15T12:03:00;28.85;;;14.13;;
42518;SDS011;28147;47.520;18.920;2023-02-15T12:05:33;23.75;;;12.70;;
42518;SDS011;28147;47.520;18.920;2023-02-15T12:08:02;23.45;;;13.02;;
42518;SDS011;28147;47.520;18.920;2023-02-15T12:10:42;23.88;;;13.07;;
42518;SDS011;28147;47.520;18.920;2023-02-15T12:13:19;26.15;;;13.93;;
42518;SDS011;28147;47.520;18.920;2023-02-15T12:15:48;30.25;;;15.23;;
42518;SDS011;28147;47.520;18.920;2023-02-15T12:18:21;29.30;;;14.77;;
42518;SDS011;28147;47.520;18.920;2023-02-15T12:21:16;22.45;;;12.50;;
42518;SDS011;28147;47.520;18.920;2023-02-15T12:24:03;22.65;;;12.60;;
42518;SDS011;28147;47.520;18.920;2023-02-15T12:28:05;24.38;;;12.43;;
42518;SDS011;28147;47.520;18.920;2023-02-15T12:30:48;23.38;;;12.60;;
42518;SDS011;28147;47.520;18.920;2023-02-15T12:33:31;22.42;;;11.95;;
42518;SDS011;28147;47.520;18.920;2023-02-15T12:38:33;26.70;;;12.38;;
42518;SDS011;28147;47.520;18.920;2023-02-15T12:41:01;22.80;;;12.18;;
42518;SDS011;28147;47.520;18.920;2023-02-15T12:43:29;23.17;;;11.13;;
42518;SDS011;28147;47.520;18.920;2023-02-15T12:46:13;25.35;;;12.10;;
42518;SDS011;28147;47.520;18.920;2023-02-15T12:51:53;24.65;;;12.45;;
42518;SDS011;28147;47.520;18.920;2023-02-15T12:54:31;22.08;;;12.18;;
42518;SDS011;28147;47.520;18.920;2023-02-15T13:00:02;20.42;;;11.07;;
42518;SDS011;28147;47.520;18.920;2023-02-15T13:02:50;22.95;;;11.35;;
42518;SDS011;28147;47.520;18.920;2023-02-15T13:05:31;21.02;;;10.85;;
42518;SDS011;28147;47.520;18.920;2023-02-15T13:10:37;21.55;;;11.38;;
42518;SDS011;28147;47.520;18.920;2023-02-15T13:13:19;20.77;;;10.38;;
42518;SDS011;28147;47.520;18.920;2023-02-15T13:15:48;22.02;;;11.55;;
42518;SDS011;28147;47.520;18.920;2023-02-15T13:20:46;21.27;;;11.60;;
42518;SDS011;28147;47.520;18.920;2023-02-15T13:23:22;20.05;;;11.23;;
42518;SDS011;28147;47.520;18.920;2023-02-15T13:25:57;19.10;;;9.90;;
42518;SDS011;28147;47.520;18.920;2023-02-15T13:28:44;21.40;;;11.43;;
42518;SDS011;28147;47.520;18.920;2023-02-15T13:31:20;20.65;;;10.82;;
42518;SDS011;28147;47.520;18.920;2023-02-15T13:33:53;28.42;;;11.50;;
42518;SDS011;28147;47.520;18.920;2023-02-15T13:42:56;18.75;;;9.77;;
42518;SDS011;28147;47.520;18.920;2023-02-15T13:56:38;24.52;;;10.75;;
42518;SDS011;28147;47.520;18.920;2023-02-15T13:59:55;19.63;;;9.38;;
42518;SDS011;28147;47.520;18.920;2023-02-15T14:19:16;17.73;;;9.18;;
42518;SDS011;28147;47.520;18.920;2023-02-15T14:27:45;19.17;;;8.80;;
42518;SDS011;28147;47.520;18.920;2023-02-15T14:32:47;23.50;;;10.20;;
42518;SDS011;28147;47.520;18.920;2023-02-15T14:35:18;20.73;;;10.60;;
42518;SDS011;28147;47.520;18.920;2023-02-15T14:40:34;20.60;;;10.40;;
42518;SDS011;28147;47.520;18.920;2023-02-15T14:49:14;22.27;;;12.20;;
42518;SDS011;28147;47.520;18.920;2023-02-15T14:56:42;23.25;;;11.55;;
42518;SDS011;28147;47.520;18.920;2023-02-15T15:01:39;20.02;;;10.93;;
42518;SDS011;28147;47.520;18.920;2023-02-15T15:04:22;26.30;;;12.68;;
42518;SDS011;28147;47.520;18.920;2023-02-15T15:09:33;23.10;;;11.43;;
42518;SDS011;28147;47.520;18.920;2023-02-15T15:14:52;27.50;;;11.57;;
42518;SDS011;28147;47.520;18.920;2023-02-15T15:22:39;26.92;;;13.60;;
42518;SDS011;28147;47.520;18.920;2023-02-15T15:25:09;27.67;;;13.68;;
42518;SDS011;28147;47.520;18.920;2023-02-15T15:28:01;25.83;;;12.43;;
42518;SDS011;28147;47.520;18.920;2023-02-15T15:50:12;27.08;;;13.57;;
42518;SDS011;28147;47.520;18.920;2023-02-15T15:52:41;26.38;;;12.70;;
42518;SDS011;28147;47.520;18.920;2023-02-15T16:03:01;24.70;;;12.80;;
42518;SDS011;28147;47.520;18.920;2023-02-15T16:05:26;25.63;;;12.48;;
42518;SDS011;28147;47.520;18.920;2023-02-15T16:07:59;23.95;;;12.90;;
42518;SDS011;28147;47.520;18.920;2023-02-15T16:10:25;29.30;;;13.43;;
42518;SDS011;28147;47.520;18.920;2023-02-15T16:13:54;21.88;;;11.57;;
42518;SDS011;28147;47.520;18.920;2023-02-15T16:16:29;25.75;;;11.80;;
42518;SDS011;28147;47.520;18.920;2023-02-15T16:19:46;25.40;;;12.63;;
42518;SDS011;28147;47.520;18.920;2023-02-15T16:47:46;24.55;;;12.65;;
42518;SDS011;28147;47.520;18.920;2023-02-15T16:52:24;22.98;;;12.35;;
42518;SDS011;28147;47.520;18.920;2023-02-15T16:57:59;23.27;;;12.93;;
42518;SDS011;28147;47.520;18.920;2023-02-15T17:00:30;23.75;;;13.15;;
42518;SDS011;28147;47.520;18.920;2023-02-15T17:17:12;25.17;;;13.57;;
42518;SDS011;28147;47.520;18.920;2023-02-15T17:22:24;29.58;;;13.77;;
42518;SDS011;28147;47.520;18.920;2023-02-15T17:24:59;26.52;;;12.70;;
42518;SDS011;28147;47.520;18.920;2023-02-15T17:39:25;22.45;;;11.45;;
42518;SDS011;28147;47.520;18.920;2023-02-15T17:45:16;25.02;;;12.63;;
42518;SDS011;28147;47.520;18.920;2023-02-15T17:59:38;21.10;;;11.63;;
42518;SDS011;28147;47.520;18.920;2023-02-15T18:02:12;22.17;;;11.95;;
42518;SDS011;28147;47.520;18.920;2023-02-15T18:04:46;22.23;;;11.65;;
42518;SDS011;28147;47.520;18.920;2023-02-15T18:07:21;24.52;;;12.10;;
42518;SDS011;28147;47.520;18.920;2023-02-15T18:09:56;21.27;;;12.02;;
42518;SDS011;28147;47.520;18.920;2023-02-15T18:13:53;22.83;;;11.52;;
42518;SDS011;28147;47.520;18.920;2023-02-15T18:16:25;26.38;;;12.25;;
42518;SDS011;28147;47.520;18.920;2023-02-15T18:22:43;25.42;;;11.98;;
42518;SDS011;28147;47.520;18.920;2023-02-15T18:26:18;24.23;;;12.80;;
42518;SDS011;28147;47.520;18.920;2023-02-15T18:33:14;22.80;;;11.95;;
42518;SDS011;28147;47.520;18.920;2023-02-15T18:36:21;27.88;;;12.45;;
42518;SDS011;28147;47.520;18.920;2023-02-15T18:38:57;25.48;;;12.57;;
42518;SDS011;28147;47.520;18.920;2023-02-15T18:41:23;22.92;;;12.75;;
42518;SDS011;28147;47.520;18.920;2023-02-15T18:45:48;27.90;;;12.38;;
42518;SDS011;28147;47.520;18.920;2023-02-15T18:53:26;27.52;;;12.63;;
42518;SDS011;28147;47.520;18.920;2023-02-15T18:55:52;30.13;;;15.40;;
42518;SDS011;28147;47.520;18.920;2023-02-15T18:58:20;28.48;;;14.35;;
42518;SDS011;28147;47.520;18.920;2023-02-15T19:00:48;33.78;;;14.90;;
42518;SDS011;28147;47.520;18.920;2023-02-15T19:03:15;27.60;;;13.93;;
42518;SDS011;28147;47.520;18.920;2023-02-15T19:05:43;23.00;;;12.27;;
42518;SDS011;28147;47.520;18.920;2023-02-15T19:08:20;27.38;;;12.80;;
42518;SDS011;28147;47.520;18.920;2023-02-15T19:10:49;24.48;;;12.98;;
42518;SDS011;28147;47.520;18.920;2023-02-15T19:13:16;27.48;;;13.55;;
42518;SDS011;28147;47.520;18.920;2023-02-15T19:15:42;30.10;;;14.30;;
42518;SDS011;28147;47.520;18.920;2023-02-15T19:18:08;31.08;;;15.32;;
42518;SDS011;28147;47.520;18.920;2023-02-15T20:15:33;29.35;;;14.30;;
42518;SDS011;28147;47.520;18.920;2023-02-15T20:18:02;26.55;;;13.63;;
42518;SDS011;28147;47.520;18.920;2023-02-15T20:20:41;30.42;;;14.60;;
42518;SDS011;28147;47.520;18.920;2023-02-15T20:24:02;28.33;;;13.13;;
42518;SDS011;28147;47.520;18.920;2023-02-15T20:26:28;25.15;;;13.27;;
42518;SDS011;28147;47.520;18.920;2023-02-15T20:28:55;27.77;;;14.07;;
42518;SDS011;28147;47.520;18.920;2023-02-15T20:31:21;32.63;;;15.13;;
42518;SDS011;28147;47.520;18.920;2023-02-15T20:33:47;31.23;;;15.30;;
42518;SDS011;28147;47.520;18.920;2023-02-15T20:36:35;28.88;;;14.82;;
42518;SDS011;28147;47.520;18.920;2023-02-15T20:39:03;34.55;;;15.68;;
42518;SDS011;28147;47.520;18.920;2023-02-15T20:41:41;26.27;;;12.60;;
42518;SDS011;28147;47.520;18.920;2023-02-15T20:46:53;27.98;;;14.18;;
42518;SDS011;28147;47.520;18.920;2023-02-15T20:49:21;28.77;;;13.70;;
42518;SDS011;28147;47.520;18.920;2023-02-15T20:51:51;30.90;;;14.52;;
42518;SDS011;28147;47.520;18.920;2023-02-15T20:54:19;25.27;;;12.98;;
42518;SDS011;28147;47.520;18.920;2023-02-15T20:56:46;33.05;;;14.88;;
42518;SDS011;28147;47.520;18.920;2023-02-15T21:02:33;28.63;;;13.27;;
42518;SDS011;28147;47.520;18.920;2023-02-15T21:04:59;28.63;;;14.25;;
42518;SDS011;28147;47.520;18.920;2023-02-15T21:07:25;25.85;;;12.95;;
42518;SDS011;28147;47.520;18.920;2023-02-15T21:09:51;28.92;;;13.90;;
42518;SDS011;28147;47.520;18.920;2023-02-15T21:12:18;28.23;;;13.13;;
42518;SDS011;28147;47.520;18.920;2023-02-15T21:14:45;30.35;;;12.15;;
42518;SDS011;28147;47.520;18.920;2023-02-15T21:17:11;26.95;;;13.35;;
42518;SDS011;28147;47.520;18.920;2023-02-15T21:19:38;24.98;;;13.00;;
42518;SDS011;28147;47.520;18.920;2023-02-15T21:22:04;26.13;;;13.63;;
42518;SDS011;28147;47.520;18.920;2023-02-15T21:24:29;25.45;;;12.52;;
42518;SDS011;28147;47.520;18.920;2023-02-15T21:29:17;27.27;;;13.38;;
42518;SDS011;28147;47.520;18.920;2023-02-15T21:31:44;27.73;;;14.98;;
42518;SDS011;28147;47.520;18.920;2023-02-15T21:34:10;28.23;;;13.88;;
42518;SDS011;28147;47.520;18.920;2023-02-15T21:38:41;28.35;;;13.40;;
42518;SDS011;28147;47.520;18.920;2023-02-15T21:41:10;35.60;;;15.43;;
42518;SDS011;28147;47.520;18.920;2023-02-15T21:45:05;29.20;;;13.30;;
42518;SDS011;28147;47.520;18.920;2023-02-15T21:47:59;28.75;;;14.07;;
42518;SDS011;28147;47.520;18.920;2023-02-15T21:50:24;29.88;;;13.48;;
42518;SDS011;28147;47.520;18.920;2023-02-15T21:53:00;26.88;;;13.55;;
42518;SDS011;28147;47.520;18.920;2023-02-15T21:55:27;26.38;;;14.05;;
42518;SDS011;28147;47.520;18.920;2023-02-15T21:58:03;30.80;;;14.00;;
42518;SDS011;28147;47.520;18.920;2023-02-15T22:00:29;27.85;;;13.80;;
42518;SDS011;28147;47.520;18.920;2023-02-15T22:02:56;30.98;;;14.27;;
42518;SDS011;28147;47.520;18.920;2023-02-15T22:05:26;24.13;;;12.55;;
42518;SDS011;28147;47.520;18.920;2023-02-15T22:07:55;27.70;;;13.95;;
42518;SDS011;28147;47.520;18.920;2023-02-15T22:10:22;25.50;;;12.68;;
42518;SDS011;28147;47.520;18.920;2023-02-15T22:14:00;30.00;;;14.20;;
42518;SDS011;28147;47.520;18.920;2023-02-15T22:16:26;29.15;;;14.13;;
42518;SDS011;28147;47.520;18.920;2023-02-15T22:18:51;28.25;;;13.75;;
42518;SDS011;28147;47.520;18.920;2023-02-15T22:21:16;29.77;;;12.93;;
42518;SDS011;28147;47.520;18.920;2023-02-15T22:23:43;30.92;;;14.18;;
42518;SDS011;28147;47.520;18.920;2023-02-15T22:28:47;29.55;;;14.75;;
42518;SDS011;28147;47.520;18.920;2023-02-15T22:31:14;30.05;;;13.25;;
42518;SDS011;28147;47.520;18.920;2023-02-15T22:34:24;28.58;;;13.75;;
42518;SDS011;28147;47.520;18.920;2023-02-15T22:37:17;29.10;;;13.93;;
42518;SDS011;28147;47.520;18.920;2023-02-15T22:39:51;30.98;;;14.48;;
42518;SDS011;28147;47.520;18.920;2023-02-15T22:44:28;29.15;;;13.63;;
42518;SDS011;28147;47.520;18.920;2023-02-15T22:46:58;31.33;;;14.00;;
42518;SDS011;28147;47.520;18.920;2023-02-15T22:49:24;23.10;;;12.73;;
42518;SDS011;28147;47.520;18.920;2023-02-15T22:51:50;25.80;;;12.95;;
42518;SDS011;28147;47.520;18.920;2023-02-15T22:54:16;26.63;;;13.63;;
42518;SDS011;28147;47.520;18.920;2023-02-15T22:59:28;28.95;;;14.20;;
42518;SDS011;28147;47.520;18.920;2023-02-15T23:02:53;29.17;;;13.93;;
42518;SDS011;28147;47.520;18.920;2023-02-15T23:07:54;31.35;;;15.05;;
42518;SDS011;28147;47.520;18.920;2023-02-15T23:10:21;31.23;;;15.35;;
42518;SDS011;28147;47.520;18.920;2023-02-15T23:23:24;32.28;;;15.40;;
42518;SDS011;28147;47.520;18.920;2023-02-15T23:26:02;29.70;;;14.23;;
42518;SDS011;28147;47.520;18.920;2023-02-15T23:28:30;31.42;;;14.88;;
42518;SDS011;28147;47.520;18.920;2023-02-15T23:31:16;29.33;;;14.75;;
42518;SDS011;28147;47.520;18.920;2023-02-15T23:33:45;38.40;;;15.70;;
42518;SDS011;28147;47.520;18.920;2023-02-15T23:38:05;27.77;;;13.00;;
42518;SDS011;28147;47.520;18.920;2023-02-15T23:40:47;28.65;;;13.32;;
42518;SDS011;28147;47.520;18.920;2023-02-15T23:43:35;31.08;;;13.75;;
42518;SDS011;28147;47.520;18.920;2023-02-15T23:46:03;32.10;;;14.50;;
42518;SDS011;28147;47.520;18.920;2023-02-15T23:51:04;26.67;;;13.82;;
42518;SDS011;28147;47.520;18.920;2023-02-15T23:53:30;28.23;;;13.90;;
42518;SDS011;28147;47.520;18.920;2023-02-15T23:55:56;26.63;;;14.20;;
42518;SDS011;28147;47.520;18.920;2023-02-15T23:58:58;29.67;;;14.70;;
